Data for 10/27/2007

Time Sea-Level Adjusted Pressure Absolute Pressure Temperature Relative Humidity Dew Point   
(mb) (inHg) (mb) (inHg) (C) (F) (%) (C) (F)
00:05 1030 30.42 859 25.37 -1.4 29.5 87 -3.2 26.2
00:10 1030 30.42 859 25.37 -1.5 29.3 87 -3.3 26
00:15 1030 30.42 859 25.37 -1.6 29.2 87 -3.4 25.8
00:20 1030 30.42 859 25.37 -1.7 28.9 87 -3.5 25.7
00:25 1030 30.42 859 25.37 -1.8 28.7 88 -3.6 25.5
00:30 1030 30.42 859 25.37 -1.8 28.7 88 -3.6 25.5
00:35 1030 30.42 859 25.37 -1.9 28.6 87 -3.7 25.3
00:40 1030 30.42 859 25.37 -1.9 28.5 88 -3.7 25.3
00:45 1030 30.42 859 25.37 -2.1 28.3 88 -3.8 25.1
00:50 1030 30.42 859 25.37 -2.1 28.2 87 -3.9 24.9
00:55 1030 30.42 859 25.37 -2.1 28.3 86 -4.1 24.7
01:00 1030 30.42 859 25.37 -1.9 28.5 85 -4.1 24.6
01:05 1030 30.42 859 25.37 -1.4 29.5 81 -4.2 24.5
01:10 1030 30.42 859 25.37 -0.8 30.6 79 -3.9 25
01:15 1030 30.42 859 25.37 -0.3 31.4 78 -3.7 25.4
01:20 1030 30.42 859 25.37 -0.2 31.7 79 -3.4 25.8
01:25 1030 30.42 859 25.37 -0.2 31.6 79 -3.5 25.8
01:30 1030 30.42 859 25.37 -0.1 31.8 78 -3.5 25.7
01:35 1030 30.42 859 25.37 0.1 32.2 78 -3.3 26
01:40 1030 30.42 859 25.37 0.3 32.5 77 -3.2 26.2
01:45 1030 30.42 859 25.37 0.5 32.9 76 -3.2 26.2
01:50 1030 30.42 859 25.37 0.6 33.1 76 -3.1 26.4
01:55 1030 30.42 859 25.37 0.6 33 77 -3.1 26.5
02:00 1030 30.42 859 25.37 0.5 32.9 77 -3.1 26.4
02:05 1030 30.42 859 25.37 0.4 32.7 77 -3.2 26.2
02:10 1030 30.42 859 25.37 0.4 32.6 77 -3.2 26.3
02:15 1030 30.42 859 25.37 0.2 32.4 78 -3.2 26.2
02:20 1030 30.42 859 25.37 0.2 32.4 77 -3.4 26
02:25 1030 30.42 859 25.37 0.3 32.5 77 -3.4 25.9
02:30 1030 30.42 859 25.37 0.3 32.5 76 -3.4 25.9
02:35 1030 30.42 859 25.37 0.4 32.7 76 -3.5 25.8
02:40 1030 30.42 859 25.37 0.4 32.7 75 -3.5 25.8
02:45 1030 30.42 859 25.37 0.5 32.8 74 -3.6 25.5
02:50 1030 30.42 859 25.37 0.6 33 73 -3.7 25.4
02:55 1030 30.42 859 25.37 0.6 33.1 72 -3.8 25.2
03:00 1030 30.42 859 25.37 0.7 33.2 72 -3.8 25.2
03:05 1030 30.42 859 25.37 0.6 33.1 74 -3.6 25.5
03:10 1030 30.42 859 25.37 0.3 32.5 75 -3.6 25.4
03:15 1029 30.39 859 25.37 0 32.1 75 -3.9 25
03:20 1029 30.39 859 25.37 -0 32 76 -3.8 25.1
03:25 1029 30.39 859 25.37 -0.1 31.9 75 -4 24.8
03:30 1029 30.39 859 25.37 -0 31.9 76 -3.8 25.1
03:35 1029 30.39 859 25.37 -0.3 31.4 77 -3.9 25
03:40 1029 30.39 859 25.37 -0.5 31 78 -4 24.8
03:45 1029 30.39 859 25.37 -0.7 30.8 78 -4.1 24.7
03:50 1029 30.39 859 25.37 -0.6 30.9 77 -4.1 24.6
03:55 1029 30.39 859 25.37 -0.6 30.9 78 -4 24.7
04:00 1029 30.39 859 25.37 -0.6 30.9 78 -4 24.8
04:05 1029 30.39 859 25.37 -0.8 30.7 79 -4 24.9
04:10 1029 30.39 859 25.37 -1.3 29.7 82 -4 24.8
04:15 1029 30.39 859 25.37 -1.6 29 83 -4.2 24.5
04:20 1029 30.39 858 25.34 -1.7 28.9 83 -4.3 24.3
04:25 1029 30.39 859 25.37 -1.7 29 82 -4.3 24.3
04:30 1029 30.39 859 25.37 -1.6 29 83 -4.2 24.4
04:35 1029 30.39 859 25.37 -1.8 28.8 81 -4.6 23.7
04:40 1029 30.39 859 25.37 -2.2 28.1 83 -4.8 23.4
04:45 1029 30.39 859 25.37 -2.2 28 82 -4.8 23.3
04:50 1029 30.39 859 25.37 -2.1 28.3 81 -4.9 23.2
04:55 1029 30.39 859 25.37 -2 28.4 80 -5 22.9
05:00 1029 30.39 859 25.37 -2 28.5 80 -5 23.1
05:05 1029 30.39 859 25.37 -2 28.4 80 -5.1 22.9
05:10 1029 30.39 859 25.37 -2.1 28.2 80 -5.1 22.8
05:15 1029 30.39 859 25.37 -2.3 27.8 81 -5.1 22.8
05:20 1030 30.42 859 25.37 -2.4 27.6 80 -5.4 22.3
05:25 1030 30.42 859 25.37 -2.4 27.7 80 -5.3 22.4
05:30 1030 30.42 859 25.37 -2.5 27.5 81 -5.4 22.3
05:35 1029 30.39 859 25.37 -2.6 27.4 81 -5.4 22.2
05:40 1029 30.39 859 25.37 -2.6 27.3 80 -5.6 21.9
05:45 1030 30.42 859 25.37 -2.5 27.5 81 -5.4 22.3
05:50 1030 30.42 859 25.37 -2.4 27.8 80 -5.4 22.2
05:55 1030 30.42 859 25.37 -2.4 27.7 79 -5.6 21.9
06:00 1029 30.39 859 25.37 -2.6 27.4 80 -5.6 22
06:05 1030 30.42 859 25.37 -2.5 27.4 80 -5.6 22
06:10 1030 30.42 859 25.37 -2.3 27.9 81 -5.2 22.7
06:15 1030 30.42 859 25.37 -2.2 28.1 82 -4.9 23.3
06:20 1030 30.42 859 25.37 -2.1 28.1 82 -4.9 23.2
06:25 1030 30.42 859 25.37 -2.1 28.2 81 -5 23.1
06:30 1030 30.42 859 25.37 -2 28.4 79 -5.1 22.7
06:35 1030 30.42 859 25.37 -2.1 28.3 79 -5.2 22.6
06:40 1030 30.42 859 25.37 -2.6 27.4 81 -5.4 22.3
06:45 1030 30.42 859 25.37 -2.9 26.7 83 -5.4 22.2
06:50 1030 30.42 859 25.37 -3.3 26.1 84 -5.6 22
06:55 1030 30.42 859 25.37 -3.4 26 84 -5.8 21.6
07:00 1030 30.42 859 25.37 -3.3 26.1 81 -6.1 21.1
07:05 1029 30.39 859 25.37 -3.1 26.3 81 -6 21.3
07:10 1029 30.39 859 25.37 -3.3 26.1 81 -6.1 20.9
07:15 1030 30.42 859 25.37 -3.4 25.9 83 -5.9 21.4
07:20 1030 30.42 859 25.37 -3.4 26 83 -5.9 21.4
07:25 1029 30.39 859 25.37 -3.4 25.9 83 -5.8 21.5
07:30 1029 30.39 859 25.37 -3.7 25.4 85 -5.9 21.3
07:35 1029 30.39 859 25.37 -3.8 25.1 84 -6.1 21
07:40 1029 30.39 859 25.37 -4 24.8 83 -6.5 20.4
07:45 1029 30.39 859 25.37 -4 24.8 82 -6.6 20.1
07:50 1029 30.39 859 25.37 -3.9 25 81 -6.7 20
07:55 1029 30.39 859 25.37 -3.9 24.9 81 -6.7 20
08:00 1029 30.39 859 25.37 -4 24.8 82 -6.7 19.9
08:05 1029 30.39 859 25.37 -4 24.9 81 -6.7 19.9
08:10 1029 30.39 859 25.37 -4 24.7 81 -6.8 19.7
08:15 1029 30.39 859 25.37 -4 24.9 79 -7.1 19.2
08:20 1029 30.39 859 25.37 -3.5 25.8 77 -6.9 19.5
08:25 1029 30.39 859 25.37 -3.3 26 78 -6.6 20
08:30 1029 30.39 859 25.37 -3.3 26.1 78 -6.5 20.3
08:35 1029 30.39 859 25.37 -3 26.5 80 -6.1 21
08:40 1030 30.42 859 25.37 -2.6 27.3 76 -6.2 20.8
08:45 1030 30.42 859 25.37 -2.3 27.9 78 -5.6 21.9
08:50 1030 30.42 859 25.37 -2.1 28.3 77 -5.6 22
08:55 1030 30.42 859 25.37 -1.8 28.8 75 -5.6 22
09:00 1030 30.42 859 25.37 -1.5 29.4 73 -5.7 21.8
09:05 1030 30.42 859 25.37 -1.1 30 72 -5.5 22
09:10 1030 30.42 859 25.37 -1 30.3 72 -5.4 22.2
09:15 1030 30.42 859 25.37 -0.7 30.7 70 -5.5 22.2
09:20 1030 30.42 859 25.37 -0.3 31.5 69 -5.3 22.4
09:25 1030 30.42 859 25.37 -0.1 31.8 68 -5.2 22.6
09:30 1030 30.42 859 25.37 0.1 32.1 68 -5.1 22.8
09:35 1030 30.42 859 25.37 0.5 32.9 66 -5.1 22.8
09:40 1030 30.42 859 25.37 0.9 33.7 65 -5 23
09:45 1030 30.42 859 25.37 1.2 34.1 65 -4.7 23.5
09:50 1030 30.42 859 25.37 1.5 34.7 62 -4.9 23.2
09:55 1030 30.42 859 25.37 1.7 35.1 63 -4.5 23.9
10:00 1030 30.42 859 25.37 1.4 34.5 63 -4.9 23.2
10:05 1030 30.42 859 25.37 1.7 35.1 62 -4.7 23.5
10:10 1030 30.42 859 25.37 1.9 35.5 64 -4.2 24.4
10:15 1030 30.42 859 25.37 1.7 35 64 -4.4 24.1
10:20 1030 30.42 859 25.37 1.6 34.9 64 -4.4 24.1
10:25 1030 30.42 859 25.37 2.3 36.1 61 -4.4 24
10:30 1029 30.39 859 25.37 2.6 36.7 61 -4.3 24.3
10:35 1029 30.39 859 25.37 2.4 36.4 62 -4.2 24.5
10:40 1029 30.39 859 25.37 3 37.3 58 -4.4 24.1
10:45 1029 30.39 859 25.37 3.2 37.7 60 -3.9 25
10:50 1029 30.39 859 25.37 3.5 38.3 59 -3.7 25.4
10:55 1029 30.39 859 25.37 3.8 38.8 61 -3 26.6
11:00 1029 30.39 859 25.37 3.7 38.6 60 -3.5 25.8
11:05 1029 30.39 858 25.34 3.9 38.9 58 -3.6 25.5
11:10 1029 30.39 858 25.34 3.2 37.7 61 -3.6 25.5
11:15 1029 30.39 859 25.37 3.3 37.9 59 -4 24.7
11:20 1029 30.39 859 25.37 4.2 39.5 57 -3.7 25.4
11:25 1029 30.39 858 25.34 4.7 40.4 54 -3.8 25.2
11:30 1029 30.39 858 25.34 5.4 41.6 54 -3.3 26
11:35 1029 30.39 858 25.34 5.1 41.1 59 -2.3 27.8
11:40 1029 30.39 858 25.34 4.1 39.3 63 -2.3 27.9
11:45 1029 30.39 858 25.34 3.7 38.6 62 -2.9 26.7
11:50 1029 30.39 858 25.34 4.2 39.6 60 -2.9 26.8
11:55 1029 30.39 858 25.34 4.8 40.6 58 -2.7 27.1
12:00 1029 30.39 858 25.34 4.7 40.4 60 -2.3 27.8
12:05 1029 30.39 858 25.34 4.9 40.9 57 -2.8 26.9
12:10 1029 30.39 858 25.34 5.1 41.1 59 -2.2 28
12:15 1029 30.39 858 25.34 5 41 56 -3.1 26.4
12:20 1029 30.39 858 25.34 5.6 42.1 54 -2.8 26.9
12:25 1029 30.39 858 25.34 5.4 41.7 54 -3 26.5
12:30 1029 30.39 858 25.34 5.2 41.3 55 -3.1 26.3
12:35 1029 30.39 858 25.34 5.3 41.6 54 -3.1 26.4
12:40 1029 30.39 858 25.34 5.5 41.9 56 -2.6 27.4
12:45 1029 30.39 858 25.34 5.5 41.8 54 -3 26.6
12:50 1029 30.39 858 25.34 5.9 42.6 52 -3.1 26.4
12:55 1029 30.39 858 25.34 5.8 42.4 54 -2.7 27.1
13:00 1029 30.39 858 25.34 5.8 42.5 51 -3.6 25.5
13:05 1029 30.39 858 25.34 6.7 44 49 -3.2 26.2
13:10 1029 30.39 858 25.34 7.2 44.9 48 -3 26.6
13:15 1028 30.36 858 25.34 7.2 44.9 47 -3.3 26.1
13:20 1028 30.36 858 25.34 6.1 43 53 -2.7 27.1
13:25 1028 30.36 857 25.31 5.6 42 50 -3.9 25
13:30 1028 30.36 857 25.31 6.6 43.8 48 -3.7 25.3
13:35 1028 30.36 857 25.31 7.1 44.8 47 -3.6 25.6
13:40 1028 30.36 857 25.31 6.6 43.9 49 -3.3 26
13:45 1028 30.36 857 25.31 7 44.7 46 -3.8 25.2
13:50 1028 30.36 857 25.31 7.4 45.3 43 -4.2 24.4
13:55 1028 30.36 857 25.31 7.5 45.4 45 -3.6 25.5
14:00 1028 30.36 857 25.31 8 46.4 43 -3.9 25
14:05 1028 30.36 857 25.31 8.2 46.8 45 -3.1 26.4
14:10 1028 30.36 857 25.31 8.2 46.8 41 -4.2 24.4
14:15 1028 30.36 857 25.31 8.4 47.2 43 -3.3 26
14:20 1028 30.36 857 25.31 7.3 45.1 49 -2.7 27.1
14:25 1028 30.36 857 25.31 6.5 43.7 46 -4.3 24.3
14:30 1028 30.36 857 25.31 7.9 46.3 43 -3.9 25
14:35 1028 30.36 857 25.31 8.4 47.1 42 -3.6 25.5
14:40 1028 30.36 857 25.31 8.7 47.6 41 -3.8 25.2
14:45 1028 30.36 857 25.31 8.7 47.7 41 -3.9 25
14:50 1028 30.36 857 25.31 9.3 48.7 40 -3.5 25.7
14:55 1028 30.36 857 25.31 9.1 48.4 38 -4.4 24
15:00 1028 30.36 857 25.31 8.5 47.4 43 -3.2 26.3
15:05 1028 30.36 857 25.31 7.2 45 44 -4.3 24.3
15:10 1027 30.33 857 25.31 7.7 45.9 41 -4.6 23.6
15:15 1027 30.33 857 25.31 8.2 46.7 39 -4.8 23.4
15:20 1027 30.33 857 25.31 8 46.3 39 -5 23
15:25 1027 30.33 857 25.31 8.7 47.6 36 -5.6 21.9
15:30 1027 30.33 857 25.31 9.3 48.8 35 -5.3 22.5
15:35 1027 30.33 856 25.28 10 50 34 -5.2 22.6
15:40 1027 30.33 856 25.28 10.3 50.5 34 -5 22.9
15:45 1027 30.33 856 25.28 10.3 50.6 33 -5.1 22.8
15:50 1027 30.33 856 25.28 10.5 50.9 32 -5.3 22.4
15:55 1027 30.33 856 25.28 10.6 51.1 33 -4.8 23.3
16:00 1027 30.33 856 25.28 10.6 51.1 33 -5.1 22.9
16:05 1027 30.33 856 25.28 10.2 50.4 33 -5.3 22.5
16:10 1027 30.33 856 25.28 10.1 50.1 33 -5.4 22.3
16:15 1027 30.33 856 25.28 10.4 50.7 32 -5.6 21.9
16:20 1027 30.33 856 25.28 10.1 50.1 34 -5.2 22.7
16:25 1027 30.33 856 25.28 10.2 50.3 35 -4.7 23.6
16:30 1027 30.33 856 25.28 9.3 48.8 37 -4.8 23.4
16:35 1027 30.33 856 25.28 9.3 48.7 36 -5.2 22.7
16:40 1027 30.33 856 25.28 9.6 49.3 35 -5 23.1
16:45 1026 30.3 856 25.28 10 50.1 34 -5.1 22.8
16:50 1026 30.3 856 25.28 10.6 51.1 34 -4.8 23.4
16:55 1026 30.3 856 25.28 10.7 51.3 34 -4.6 23.6
17:00 1026 30.3 855 25.25 10.7 51.3 33 -4.8 23.3
17:05 1026 30.3 855 25.25 11.2 52.2 32 -4.8 23.3
17:10 1026 30.3 855 25.25 11.3 52.3 32 -5 23.1
17:15 1026 30.3 855 25.25 11.5 52.7 31 -5.1 22.8
17:20 1026 30.3 855 25.25 11.4 52.5 31 -5 23
17:25 1026 30.3 855 25.25 11.1 51.9 33 -4.7 23.6
17:30 1026 30.3 855 25.25 10.9 51.7 33 -4.9 23.2
17:35 1026 30.3 855 25.25 10.7 51.2 34 -4.7 23.5
17:40 1026 30.3 855 25.25 10.4 50.6 34 -4.7 23.5
17:45 1026 30.3 855 25.25 10.2 50.4 34 -4.8 23.4
17:50 1026 30.3 855 25.25 10.1 50.1 35 -4.8 23.3
17:55 1026 30.3 855 25.25 10 49.9 35 -4.9 23.1
18:00 1026 30.3 855 25.25 9.7 49.4 35 -5 23
18:05 1026 30.3 855 25.25 9.4 48.8 39 -3.9 25
18:10 1026 30.3 855 25.25 8.7 47.6 44 -3 26.6
18:15 1026 30.3 855 25.25 7.8 46 49 -2.2 28
18:20 1026 30.3 855 25.25 6.8 44.3 51 -2.6 27.4
18:25 1026 30.3 855 25.25 6.4 43.6 53 -2.5 27.4
18:30 1026 30.3 855 25.25 6.2 43.2 52 -2.9 26.8
18:35 1026 30.3 855 25.25 6.1 43 49 -3.7 25.3
18:40 1026 30.3 855 25.25 5.9 42.7 50 -3.8 25.2
18:45 1026 30.3 855 25.25 5.8 42.4 49 -4.2 24.4
18:50 1026 30.3 855 25.25 5.5 41.9 50 -4.2 24.5
18:55 1026 30.3 855 25.25 5.3 41.6 50 -4.4 24.1
19:00 1026 30.3 855 25.25 5.3 41.5 50 -4.2 24.4
19:05 1026 30.3 855 25.25 5 41 51 -4.2 24.5
19:10 1026 30.3 855 25.25 4.6 40.3 54 -3.9 24.9
19:15 1026 30.3 855 25.25 4.1 39.4 55 -4 24.8
19:20 1026 30.3 855 25.25 3.6 38.5 59 -3.6 25.5
19:25 1026 30.3 855 25.25 3.4 38.1 60 -3.7 25.3
19:30 1026 30.3 855 25.25 3.2 37.7 59 -4.2 24.5
19:35 1026 30.3 855 25.25 3.2 37.7 56 -4.8 23.4
19:40 1026 30.3 856 25.28 3.2 37.7 53 -5.5 22.1
19:45 1026 30.3 856 25.28 3.3 38 53 -5.4 22.3
19:50 1027 30.33 856 25.28 3.2 37.8 56 -4.8 23.4
19:55 1027 30.33 856 25.28 3 37.4 54 -5.5 22.1
20:00 1026 30.3 856 25.28 2.6 36.7 56 -5.3 22.4
20:05 1026 30.3 856 25.28 2.3 36.1 57 -5.3 22.5
20:10 1026 30.3 856 25.28 2.4 36.3 56 -5.4 22.2
20:15 1026 30.3 856 25.28 2.9 37.2 57 -4.8 23.3
20:20 1026 30.3 856 25.28 3.4 38.1 53 -5.3 22.5
20:25 1026 30.3 856 25.28 3 37.5 55 -5.1 22.8
20:30 1026 30.3 856 25.28 3.2 37.8 54 -5.1 22.8
20:35 1026 30.3 856 25.28 3.1 37.5 49 -6.7 19.9
20:40 1026 30.3 856 25.28 3.1 37.6 50 -6.3 20.6
20:45 1026 30.3 855 25.25 2.4 36.4 55 -5.6 21.9
20:50 1026 30.3 855 25.25 1.7 35.1 56 -6 21.1
20:55 1026 30.3 855 25.25 1.9 35.4 51 -7.3 18.8
21:00 1026 30.3 855 25.25 2.8 37 47 -7.6 18.4
21:05 1026 30.3 856 25.28 3.1 37.5 48 -6.9 19.6
21:10 1026 30.3 856 25.28 2.8 37.1 48 -7.2 19
21:15 1026 30.3 856 25.28 2.7 36.9 48 -7.1 19.2
21:20 1027 30.33 856 25.28 2.2 36 50 -7.1 19.2
21:25 1027 30.33 856 25.28 1.9 35.5 49 -7.7 18.2
21:30 1027 30.33 856 25.28 2.4 36.3 47 -7.8 17.9
21:35 1027 30.33 856 25.28 2.8 37 47 -7.4 18.8
21:40 1027 30.33 856 25.28 2.6 36.6 49 -7.1 19.3
21:45 1027 30.33 856 25.28 2.1 35.8 52 -6.8 19.8
21:50 1027 30.33 856 25.28 1.6 34.9 55 -6.5 20.4
21:55 1027 30.33 856 25.28 1 33.9 53 -7.4 18.7
22:00 1027 30.33 856 25.28 1.5 34.8 49 -8.1 17.5
22:05 1027 30.33 856 25.28 1.9 35.5 47 -8.3 17.1
22:10 1027 30.33 856 25.28 2.5 36.5 43 -8.8 16.2
22:15 1027 30.33 856 25.28 2.7 36.9 42 -9.1 15.7
22:20 1027 30.33 856 25.28 2.5 36.5 44 -8.5 16.6
22:25 1027 30.33 856 25.28 1.8 35.2 48 -8.1 17.5
22:30 1027 30.33 856 25.28 1.1 34 52 -7.6 18.3
22:35 1027 30.33 856 25.28 0.7 33.2 49 -8.9 16
22:40 1027 30.33 856 25.28 1.4 34.4 46 -9.1 15.5
22:45 1027 30.33 856 25.28 1.9 35.4 41 -10 13.9
22:50 1027 30.33 856 25.28 2.3 36.1 40 -10.1 13.8
22:55 1027 30.33 856 25.28 2.3 36.2 45 -8.4 17
23:00 1027 30.33 856 25.28 1.7 35 43 -9.5 14.9
23:05 1027 30.33 856 25.28 1.7 35 41 -10.2 13.7
23:10 1027 30.33 856 25.28 1.7 35.1 39 -10.7 12.7
23:15 1027 30.33 856 25.28 2 35.5 41 -10 14.1
23:20 1027 30.33 856 25.28 1.5 34.7 43 -9.7 14.6
23:25 1027 30.33 856 25.28 1.3 34.3 42 -10.2 13.6
23:30 1027 30.33 856 25.28 1.4 34.6 41 -10.4 13.4
23:35 1026 30.3 856 25.28 1.6 35 41 -10.2 13.6
23:40 1026 30.3 856 25.28 1.6 34.8 41 -10.4 13.4
23:45 1026 30.3 856 25.28 1.8 35.2 39 -10.7 12.8
23:50 1026 30.3 856 25.28 2.1 35.9 38 -10.7 12.8
23:55 1026 30.3 856 25.28 2.1 35.8 39 -10.4 13.2
24:00 1026 30.3 856 25.28 1.9 35.4 40 -10.2 13.6